createdAt,value
2019-02-10T00:01:56.247Z,15.92
2019-02-10T00:04:23.997Z,15.87
2019-02-10T00:06:52.233Z,15.86
2019-02-10T00:09:20.023Z,15.91
2019-02-10T00:11:48.178Z,15.90
2019-02-10T00:14:16.111Z,15.98
2019-02-10T00:16:44.012Z,15.83
2019-02-10T00:19:11.767Z,15.82
2019-02-10T00:21:39.575Z,15.94
2019-02-10T00:24:07.324Z,15.83
2019-02-10T00:26:35.164Z,15.93
2019-02-10T00:29:02.920Z,15.94
2019-02-10T00:31:30.650Z,15.79
2019-02-10T00:33:58.701Z,15.77
2019-02-10T00:36:32.921Z,15.79
2019-02-10T00:38:55.928Z,15.91
2019-02-10T00:41:23.692Z,15.77
2019-02-10T00:43:51.799Z,15.91
2019-02-10T00:46:19.680Z,15.79
2019-02-10T00:48:47.416Z,15.85
2019-02-10T00:51:15.153Z,15.95
2019-02-10T00:53:43.812Z,15.91
2019-02-10T00:56:11.644Z,15.89
2019-02-10T00:58:39.756Z,15.93
2019-02-10T01:01:07.660Z,15.96
2019-02-10T01:03:35.393Z,16.01
2019-02-10T01:06:03.334Z,16.02
2019-02-10T01:08:31.126Z,15.98
2019-02-10T01:10:58.951Z,16.04
2019-02-10T01:13:26.881Z,15.98
2019-02-10T01:15:54.832Z,15.99
2019-02-10T01:18:22.644Z,15.96
2019-02-10T01:20:50.425Z,16.08
2019-02-10T01:23:18.224Z,16.02
2019-02-10T01:25:46.067Z,16.01
2019-02-10T01:28:13.805Z,15.98
2019-02-10T01:30:41.817Z,16.35
2019-02-10T01:33:09.629Z,16.07
2019-02-10T01:35:37.465Z,15.90
2019-02-10T01:38:05.193Z,15.89
2019-02-10T01:40:32.953Z,15.79
2019-02-10T01:43:00.728Z,15.48
2019-02-10T01:45:28.532Z,15.92
2019-02-10T01:47:56.284Z,15.95
2019-02-10T01:50:24.027Z,15.93
2019-02-10T01:52:51.768Z,15.96
2019-02-10T01:55:19.495Z,15.98
2019-02-10T01:57:47.263Z,15.94
2019-02-10T02:00:15.472Z,15.96
2019-02-10T02:02:43.276Z,15.99
2019-02-10T02:05:11.112Z,15.90
2019-02-10T02:07:38.954Z,15.90
2019-02-10T02:10:07.449Z,15.96
2019-02-10T02:12:35.213Z,15.99
2019-02-10T02:15:02.951Z,16.02
2019-02-10T02:17:30.750Z,15.98
2019-02-10T02:19:58.484Z,16.01
2019-02-10T02:22:26.227Z,15.96
2019-02-10T02:24:53.969Z,15.94
2019-02-10T02:27:21.869Z,15.98
2019-02-10T02:29:49.606Z,16.01
2019-02-10T02:32:17.353Z,15.93
2019-02-10T02:34:45.119Z,15.89
2019-02-10T02:54:00.271Z,15.96
2019-02-10T02:56:45.853Z,15.99
2019-02-10T02:59:28.845Z,15.98
2019-02-10T03:09:00.766Z,15.81
2019-02-10T03:18:07.041Z,15.82
2019-02-10T03:30:01.394Z,15.74
2019-02-10T03:36:09.010Z,15.83
2019-02-10T03:39:01.143Z,15.77
2019-02-10T03:47:57.316Z,15.64
2019-02-10T03:54:00.339Z,15.60
2019-02-10T04:02:58.137Z,15.53
2019-02-10T04:05:26.095Z,15.49
2019-02-10T04:14:50.104Z,15.49
2019-02-10T04:33:08.972Z,15.41
2019-02-10T04:35:36.696Z,15.35
2019-02-10T04:38:04.820Z,15.49
2019-02-10T04:40:32.567Z,15.39
2019-02-10T04:43:00.298Z,15.43
2019-02-10T04:45:28.139Z,15.51
2019-02-10T04:47:55.873Z,15.43
2019-02-10T04:50:23.689Z,15.44
2019-02-10T04:52:51.537Z,15.52
2019-02-10T04:55:19.388Z,15.46
2019-02-10T04:57:47.113Z,15.42
2019-02-10T05:00:14.947Z,15.41
2019-02-10T05:02:42.956Z,15.41
2019-02-10T05:05:10.685Z,15.39
2019-02-10T05:07:38.489Z,15.33
2019-02-10T05:10:06.448Z,15.42
2019-02-10T05:12:34.188Z,15.38
2019-02-10T05:15:02.004Z,15.31
2019-02-10T05:17:29.818Z,15.35
2019-02-10T05:19:57.778Z,15.31
2019-02-10T05:22:25.726Z,15.34
2019-02-10T05:24:53.474Z,15.37
2019-02-10T05:27:21.302Z,15.33
2019-02-10T05:29:49.093Z,15.35
2019-02-10T05:32:16.857Z,15.37
2019-02-10T05:34:44.718Z,15.30
2019-02-10T05:37:12.510Z,15.35
2019-02-10T05:39:40.252Z,15.38
2019-02-10T05:42:08.026Z,15.35
2019-02-10T05:44:35.764Z,15.38
2019-02-10T05:47:03.585Z,15.29
2019-02-10T05:49:31.404Z,15.31
2019-02-10T05:51:59.333Z,15.34
2019-02-10T05:54:27.121Z,15.34
2019-02-10T05:56:54.901Z,15.27
2019-02-10T05:59:22.631Z,15.30
2019-02-10T06:02:20.712Z,15.32
2019-02-10T06:04:48.504Z,15.31
2019-02-10T06:07:16.793Z,15.36
2019-02-10T06:09:44.671Z,15.34
2019-02-10T06:12:12.457Z,15.34
2019-02-10T06:14:40.272Z,15.32
2019-02-10T06:17:08.046Z,15.37
2019-02-10T06:19:35.913Z,15.31
2019-02-10T06:22:03.687Z,15.25
2019-02-10T06:24:31.607Z,15.27
2019-02-10T06:26:59.437Z,15.27
2019-02-10T06:29:27.327Z,15.31
2019-02-10T06:31:55.234Z,15.32
2019-02-10T06:34:23.068Z,15.35
2019-02-10T06:36:50.884Z,15.31
2019-02-10T06:39:18.622Z,15.29
2019-02-10T06:41:46.411Z,15.29
2019-02-10T06:44:14.169Z,15.25
2019-02-10T06:46:41.899Z,15.31
2019-02-10T06:49:09.670Z,15.30
2019-02-10T06:51:37.465Z,15.29
2019-02-10T06:54:05.204Z,15.22
2019-02-10T06:56:32.971Z,15.22
2019-02-10T06:59:00.696Z,15.30
2019-02-10T07:01:34.950Z,15.26
2019-02-10T07:04:07.567Z,15.26
2019-02-10T07:06:35.386Z,15.28
2019-02-10T07:09:03.466Z,15.26
2019-02-10T07:11:31.252Z,15.23
2019-02-10T07:13:59.954Z,15.21
2019-02-10T07:16:28.757Z,15.26
2019-02-10T07:19:14.632Z,15.19
2019-02-10T07:21:44.277Z,15.17
2019-02-10T07:24:46.496Z,15.23
2019-02-10T07:27:18.761Z,15.21
2019-02-10T07:30:04.609Z,15.14
2019-02-10T07:32:40.372Z,15.17
2019-02-10T07:35:33.271Z,15.11
2019-02-10T07:38:03.271Z,15.05
2019-02-10T07:40:50.466Z,15.12
2019-02-10T07:43:31.621Z,15.11
2019-02-10T07:46:12.769Z,15.14
2019-02-10T07:48:47.206Z,15.07
2019-02-10T07:51:20.714Z,15.06
2019-02-10T07:53:57.637Z,15.09
2019-02-10T07:56:30.359Z,15.11
2019-02-10T07:59:12.697Z,15.13
2019-02-10T08:01:56.119Z,15.09
2019-02-10T08:04:55.494Z,15.13
2019-02-10T08:07:31.058Z,15.13
2019-02-10T08:10:20.577Z,15.07
2019-02-10T08:13:03.758Z,15.09
2019-02-10T08:16:06.025Z,15.10
2019-02-10T08:18:50.015Z,15.06
2019-02-10T08:21:27.016Z,15.12
2019-02-10T08:24:07.012Z,15.07
2019-02-10T08:26:40.687Z,15.12
2019-02-10T08:29:17.218Z,15.08
2019-02-10T08:32:03.191Z,15.08
2019-02-10T08:34:53.039Z,15.10
2019-02-10T08:37:26.826Z,15.20
2019-02-10T08:40:12.957Z,15.20
2019-02-10T08:42:48.913Z,15.19
2019-02-10T08:45:25.799Z,15.16
2019-02-10T08:48:19.825Z,15.13
2019-02-10T08:51:10.181Z,15.08
2019-02-10T08:53:39.399Z,15.09
2019-02-10T08:56:07.259Z,15.08
2019-02-10T08:58:35.020Z,15.10
2019-02-10T09:01:02.790Z,15.14
2019-02-10T09:03:30.790Z,15.02
2019-02-10T09:05:58.677Z,15.05
2019-02-10T09:08:26.662Z,15.11
2019-02-10T09:10:54.425Z,15.18
2019-02-10T09:13:22.687Z,15.10
2019-02-10T09:15:50.524Z,15.08
2019-02-10T09:18:18.590Z,15.10
2019-02-10T09:20:46.944Z,15.08
2019-02-10T09:23:14.769Z,15.14
2019-02-10T09:25:42.642Z,15.10
2019-02-10T09:28:10.401Z,15.09
2019-02-10T09:30:38.406Z,15.09
2019-02-10T09:33:06.634Z,15.13
2019-02-10T09:35:34.614Z,15.14
2019-02-10T09:38:03.797Z,15.17
2019-02-10T09:40:35.062Z,15.09
2019-02-10T09:43:03.274Z,15.21
2019-02-10T09:45:31.196Z,15.11
2019-02-10T09:48:01.195Z,15.18
2019-02-10T09:50:29.356Z,15.23
2019-02-10T09:52:58.004Z,15.23
2019-02-10T09:55:25.856Z,15.23
2019-02-10T09:57:53.789Z,15.23
2019-02-10T10:00:21.650Z,15.25
2019-02-10T10:02:49.384Z,15.20
2019-02-10T10:05:17.136Z,15.21
2019-02-10T10:07:44.955Z,15.21
2019-02-10T10:10:12.830Z,15.17
2019-02-10T10:12:40.557Z,15.22
2019-02-10T10:15:09.260Z,15.21
2019-02-10T10:17:37.010Z,15.18
2019-02-10T10:20:05.336Z,15.19
2019-02-10T10:22:33.371Z,15.15
2019-02-10T10:25:01.173Z,15.14
2019-02-10T10:27:30.003Z,15.12
2019-02-10T10:29:57.804Z,15.11
2019-02-10T10:32:25.573Z,15.18
2019-02-10T10:34:53.302Z,15.30
2019-02-10T10:37:21.069Z,15.13
2019-02-10T10:39:48.852Z,15.03
2019-02-10T10:42:16.757Z,15.12
2019-02-10T10:44:44.552Z,15.08
2019-02-10T10:47:12.499Z,15.06
2019-02-10T10:49:40.328Z,15.05
2019-02-10T10:52:08.107Z,15.10
2019-02-10T10:54:42.684Z,15.00
2019-02-10T10:57:05.582Z,15.09
2019-02-10T10:59:33.360Z,15.03
2019-02-10T11:02:01.280Z,15.08
2019-02-10T11:04:29.056Z,15.17
2019-02-10T11:06:57.067Z,15.13
2019-02-10T11:09:25.087Z,15.17
2019-02-10T11:11:52.949Z,15.08
2019-02-10T11:14:20.948Z,15.15
2019-02-10T11:16:49.099Z,15.22
2019-02-10T11:19:17.273Z,15.13
2019-02-10T11:21:45.126Z,15.10
2019-02-10T11:24:13.033Z,15.13
2019-02-10T11:26:40.921Z,15.00
2019-02-10T11:29:08.734Z,15.15
2019-02-10T11:31:36.479Z,15.18
2019-02-10T11:34:04.260Z,15.19
2019-02-10T11:36:32.161Z,15.21
2019-02-10T11:39:00.138Z,15.28
2019-02-10T11:41:28.092Z,15.24
2019-02-10T11:43:55.991Z,15.29
2019-02-10T11:46:23.808Z,15.28
2019-02-10T11:48:51.619Z,15.25
2019-02-10T11:51:19.425Z,15.26
2019-02-10T11:53:47.270Z,15.22
2019-02-10T11:56:15.061Z,15.22
2019-02-10T11:58:42.983Z,15.23
2019-02-10T12:01:10.765Z,15.22
2019-02-10T12:03:38.516Z,15.25
2019-02-10T12:06:06.256Z,15.18
2019-02-10T12:08:35.824Z,15.18
2019-02-10T12:11:03.508Z,15.25
2019-02-10T12:13:31.458Z,15.20
2019-02-10T12:15:59.285Z,15.24
2019-02-10T12:18:27.248Z,15.28
2019-02-10T12:20:55.276Z,15.21
2019-02-10T12:23:23.577Z,15.26
2019-02-10T12:25:51.429Z,15.18
2019-02-10T12:28:19.289Z,15.22
2019-02-10T12:30:47.086Z,15.22
2019-02-10T12:33:15.048Z,15.22
2019-02-10T12:35:42.816Z,15.22
2019-02-10T12:38:10.657Z,15.18
2019-02-10T12:40:38.860Z,15.12
2019-02-10T12:43:06.707Z,15.19
2019-02-10T12:45:34.651Z,15.22
2019-02-10T12:48:02.383Z,15.20
2019-02-10T12:50:30.711Z,15.25
2019-02-10T12:52:58.606Z,15.21
2019-02-10T12:55:27.338Z,15.27
2019-02-10T12:57:55.542Z,15.21
2019-02-10T13:00:23.408Z,15.26
2019-02-10T13:02:52.259Z,15.15
2019-02-10T13:05:20.085Z,15.19
2019-02-10T13:07:47.917Z,15.21
2019-02-10T13:10:18.170Z,15.17
2019-02-10T13:12:45.625Z,15.16
2019-02-10T13:15:13.495Z,15.14
2019-02-10T13:17:41.439Z,15.13
2019-02-10T13:20:09.259Z,15.16
2019-02-10T13:22:37.010Z,15.15
2019-02-10T13:25:05.044Z,15.16
2019-02-10T13:27:32.794Z,15.23
2019-02-10T13:30:00.530Z,15.24
2019-02-10T13:32:28.331Z,15.28
2019-02-10T13:34:56.066Z,15.28
2019-02-10T13:37:25.118Z,15.34
2019-02-10T13:39:52.893Z,15.30
2019-02-10T13:42:20.701Z,15.37
2019-02-10T13:44:48.480Z,15.41
2019-02-10T13:47:16.248Z,15.29
2019-02-10T13:49:44.141Z,15.35
2019-02-10T13:52:11.872Z,15.44
2019-02-10T13:54:39.668Z,15.43
2019-02-10T13:57:07.442Z,15.42
2019-02-10T13:59:35.283Z,15.50
2019-02-10T14:02:03.236Z,15.52
2019-02-10T14:04:30.984Z,15.60
2019-02-10T14:06:58.741Z,15.63
2019-02-10T14:09:26.561Z,15.50
2019-02-10T14:11:54.305Z,15.53
2019-02-10T14:14:22.291Z,15.62
2019-02-10T14:16:50.054Z,15.65
2019-02-10T14:19:17.849Z,15.63
2019-02-10T14:21:45.604Z,15.65
2019-02-10T14:24:13.409Z,15.64
2019-02-10T14:26:41.254Z,15.64
2019-02-10T14:29:08.976Z,15.67
2019-02-10T14:31:36.779Z,15.65
2019-02-10T14:34:04.520Z,15.48
2019-02-10T14:36:32.265Z,15.68
2019-02-10T14:39:00.036Z,15.75
2019-02-10T14:41:27.776Z,15.83
2019-02-10T14:43:55.596Z,15.77
2019-02-10T14:46:23.411Z,15.76
2019-02-10T14:48:51.140Z,15.69
2019-02-10T14:51:18.911Z,15.83
2019-02-10T14:53:46.652Z,15.77
2019-02-10T14:56:14.402Z,15.83
2019-02-10T14:58:43.531Z,15.77
2019-02-10T15:01:11.281Z,15.79
2019-02-10T15:03:39.015Z,15.87
2019-02-10T15:06:06.772Z,15.58
2019-02-10T15:08:34.900Z,15.76
2019-02-10T15:11:02.725Z,15.73
2019-02-10T15:13:30.694Z,15.83
2019-02-10T15:15:58.649Z,15.76
2019-02-10T15:18:26.461Z,15.69
2019-02-10T15:20:54.201Z,15.85
2019-02-10T15:23:22.093Z,15.57
2019-02-10T15:25:49.957Z,15.76
2019-02-10T15:28:17.683Z,15.77
2019-02-10T15:30:45.408Z,15.88
2019-02-10T15:33:13.172Z,15.93
2019-02-10T15:35:40.921Z,15.87
2019-02-10T15:38:08.717Z,15.86
2019-02-10T15:40:36.443Z,15.86
2019-02-10T15:43:04.248Z,15.99
2019-02-10T15:45:32.050Z,15.99
2019-02-10T15:47:59.813Z,15.99
2019-02-10T15:50:27.625Z,15.99
2019-02-10T15:52:55.867Z,15.97
2019-02-10T15:55:23.642Z,16.10
2019-02-10T15:57:51.408Z,16.04
2019-02-10T16:00:20.321Z,15.98
2019-02-10T16:02:48.068Z,16.10
2019-02-10T16:05:15.820Z,16.05
2019-02-10T16:07:43.843Z,16.06
2019-02-10T16:10:11.815Z,16.05
2019-02-10T16:12:39.780Z,15.97
2019-02-10T16:15:07.759Z,16.00
2019-02-10T16:17:35.581Z,16.03
2019-02-10T16:20:03.529Z,16.01
2019-02-10T16:22:31.701Z,16.03
2019-02-10T16:24:59.423Z,16.01
2019-02-10T16:27:27.157Z,15.97
2019-02-10T16:29:54.980Z,16.01
2019-02-10T16:32:22.760Z,16.04
2019-02-10T16:34:50.518Z,16.04
2019-02-10T16:37:18.264Z,16.02
2019-02-10T16:39:46.139Z,16.07
2019-02-10T16:42:14.288Z,16.38
2019-02-10T16:44:42.104Z,16.16
2019-02-10T16:47:09.891Z,16.14
2019-02-10T16:49:37.637Z,16.11
2019-02-10T16:52:05.382Z,16.10
2019-02-10T16:54:33.135Z,16.13
2019-02-10T16:57:00.931Z,16.16
2019-02-10T16:59:28.919Z,16.06
2019-02-10T17:01:57.485Z,16.08
2019-02-10T17:04:25.573Z,16.11
2019-02-10T17:06:53.476Z,16.15
2019-02-10T17:09:21.208Z,16.13
2019-02-10T17:11:50.026Z,16.08
2019-02-10T17:14:18.196Z,16.05
2019-02-10T17:16:46.080Z,15.86
2019-02-10T17:19:13.855Z,16.15
2019-02-10T17:21:41.637Z,16.14
2019-02-10T17:24:09.384Z,15.90
2019-02-10T17:26:37.193Z,16.12
2019-02-10T17:29:05.096Z,16.23
2019-02-10T17:31:32.908Z,16.15
2019-02-10T17:34:00.672Z,16.17
2019-02-10T17:36:28.532Z,16.03
2019-02-10T17:38:56.303Z,16.11
2019-02-10T17:41:32.853Z,16.09
2019-02-10T17:44:00.727Z,16.04
2019-02-10T17:46:28.535Z,15.99
2019-02-10T17:48:56.392Z,15.93
2019-02-10T17:51:24.378Z,15.88
2019-02-10T17:53:52.251Z,15.91
2019-02-10T17:56:21.225Z,15.84
2019-02-10T17:58:49.160Z,15.94
2019-02-10T18:01:16.891Z,15.72
2019-02-10T18:03:44.617Z,15.82
2019-02-10T18:06:12.358Z,15.70
2019-02-10T18:08:40.099Z,15.92
2019-02-10T18:11:07.867Z,15.72
2019-02-10T18:13:35.669Z,15.78
2019-02-10T18:16:15.769Z,15.78
2019-02-10T18:18:56.255Z,15.72
2019-02-10T18:21:32.717Z,15.78
2019-02-10T18:24:13.131Z,15.84
2019-02-10T18:27:06.192Z,15.90
2019-02-10T18:29:56.034Z,15.83
2019-02-10T18:32:31.564Z,15.75
2019-02-10T18:35:15.881Z,15.78
2019-02-10T18:37:51.933Z,15.78
2019-02-10T18:40:38.951Z,15.75
2019-02-10T18:43:17.408Z,15.60
2019-02-10T18:46:01.968Z,15.76
2019-02-10T18:48:57.743Z,15.75
2019-02-10T18:51:44.912Z,15.73
2019-02-10T18:54:34.532Z,15.62
2019-02-10T18:57:09.924Z,15.64
2019-02-10T18:59:50.055Z,15.58
2019-02-10T19:02:40.393Z,15.69
2019-02-10T19:05:27.391Z,15.74
2019-02-10T19:08:04.380Z,15.58
2019-02-10T19:11:06.548Z,15.58
2019-02-10T19:13:48.880Z,15.54
2019-02-10T19:16:25.688Z,15.59
2019-02-10T19:19:00.567Z,15.52
2019-02-10T19:21:44.610Z,15.54
2019-02-10T19:24:24.501Z,15.51
2019-02-10T19:27:26.689Z,15.48
2019-02-10T19:30:09.210Z,15.31
2019-02-10T19:32:44.650Z,15.62
2019-02-10T19:35:36.235Z,15.53
2019-02-10T19:38:22.209Z,15.53
2019-02-10T19:41:09.078Z,15.60
2019-02-10T19:43:55.680Z,15.59
2019-02-10T19:46:45.482Z,15.55
2019-02-10T19:49:25.656Z,15.31
2019-02-10T19:52:03.140Z,15.35
2019-02-10T19:54:52.635Z,15.56
2019-02-10T19:57:38.119Z,15.58
2019-02-10T20:00:28.061Z,15.59
2019-02-10T20:03:06.090Z,15.57
2019-02-10T20:05:53.062Z,15.57
2019-02-10T20:08:32.854Z,14.97
2019-02-10T20:11:28.674Z,14.60
2019-02-10T20:14:05.659Z,14.44
2019-02-10T20:16:51.241Z,14.33
2019-02-10T20:19:41.166Z,14.31
2019-02-10T20:22:40.136Z,13.99
2019-02-10T20:25:13.954Z,13.80
2019-02-10T20:28:01.813Z,13.56
2019-02-10T20:30:48.723Z,13.24
2019-02-10T20:33:44.633Z,13.27
2019-02-10T20:36:22.285Z,13.35
2019-02-10T20:39:01.104Z,13.41
2019-02-10T20:41:35.594Z,12.89
2019-02-10T20:44:28.096Z,12.93
2019-02-10T20:47:03.092Z,12.94
2019-02-10T20:49:44.224Z,12.93
2019-02-10T20:52:30.173Z,12.59
2019-02-10T20:55:14.645Z,12.70
2019-02-10T20:57:57.954Z,12.08
2019-02-10T21:00:43.598Z,12.51
2019-02-10T21:03:17.664Z,12.42
2019-02-10T21:06:01.169Z,12.19
2019-02-10T21:08:43.292Z,11.79
2019-02-10T21:11:28.958Z,11.73
2019-02-10T21:14:07.177Z,11.77
2019-02-10T21:16:49.894Z,11.51
2019-02-10T21:19:36.735Z,11.75
2019-02-10T21:22:13.388Z,11.46
2019-02-10T21:24:58.830Z,11.74
2019-02-10T21:27:55.008Z,11.39
2019-02-10T21:30:48.029Z,11.49
2019-02-10T21:33:34.869Z,11.19
2019-02-10T21:36:30.803Z,10.74
2019-02-10T21:39:16.736Z,10.46
2019-02-10T21:41:56.012Z,10.13
2019-02-10T21:44:32.145Z,10.22
2019-02-10T21:47:14.409Z,10.10
2019-02-10T21:49:43.173Z,11.39
2019-02-10T21:52:10.920Z,11.68
2019-02-10T21:54:38.832Z,11.67
2019-02-10T21:57:06.609Z,10.94
2019-02-10T21:59:34.366Z,11.63
2019-02-10T22:02:02.122Z,10.78
2019-02-10T22:04:29.928Z,10.25
2019-02-10T22:06:57.756Z,10.01
2019-02-10T22:09:25.604Z,9.85
2019-02-10T22:11:53.469Z,10.34
2019-02-10T22:14:21.322Z,10.24
2019-02-10T22:16:49.204Z,10.29
2019-02-10T22:19:16.941Z,10.45
2019-02-10T22:21:44.688Z,10.85
2019-02-10T22:24:12.544Z,10.80
2019-02-10T22:26:40.355Z,11.21
2019-02-10T22:29:08.136Z,11.05
2019-02-10T22:31:35.998Z,10.99
2019-02-10T22:34:03.725Z,11.37
2019-02-10T22:36:31.500Z,11.20
2019-02-10T22:38:59.615Z,11.53
2019-02-10T22:41:27.368Z,11.36
2019-02-10T22:43:55.176Z,11.30
2019-02-10T22:46:22.981Z,11.24
2019-02-10T22:48:50.732Z,11.60
2019-02-10T22:51:18.514Z,11.87
2019-02-10T22:53:46.337Z,11.72
2019-02-10T22:56:14.079Z,12.13
2019-02-10T22:58:41.828Z,11.19
2019-02-10T23:01:09.958Z,11.42
2019-02-10T23:03:37.762Z,11.06
2019-02-10T23:06:05.551Z,10.90
2019-02-10T23:08:33.298Z,11.29
2019-02-10T23:11:01.032Z,10.89
2019-02-10T23:13:28.791Z,10.94
2019-02-10T23:15:56.587Z,10.90
2019-02-10T23:18:24.519Z,10.96
2019-02-10T23:20:52.268Z,11.18
2019-02-10T23:23:20.036Z,11.14
2019-02-10T23:25:47.783Z,11.11
2019-02-10T23:28:15.623Z,10.88
2019-02-10T23:30:43.459Z,11.02
2019-02-10T23:33:11.279Z,11.01
2019-02-10T23:35:39.111Z,11.24
2019-02-10T23:38:06.956Z,11.03
2019-02-10T23:40:34.683Z,10.91
2019-02-10T23:43:02.572Z,10.83
2019-02-10T23:45:30.460Z,10.96
2019-02-10T23:47:58.204Z,11.04
2019-02-10T23:50:26.016Z,10.95
2019-02-10T23:52:53.848Z,11.16
2019-02-10T23:55:21.625Z,11.02
2019-02-10T23:57:49.450Z,11.01
